Time;durP1;ratioP1;P1;durP2;ratioP2;P2;SDS_P1;SDS_P2;PMS_P1;PMS_P2;Temp;Humidity;BMP_temperature;BMP_pressure;BME280_temperature;BME280_humidity;BME280_pressure;Samples;Min_cycle;Max_cycle;Signal;HPM_P1;HPM_P2
2023/10/13 04:29:10;;;;;;;1999.90;999.90;;;;;;;;;;5225207;23;20146;-62
2023/10/13 04:31:59;;;;;;;;;;;;;;;;;;4975470;28;20042;-64
2023/10/13 04:34:34;;;;;;;1999.90;999.90;;;;;;;;;;4974630;28;20270;-64
2023/10/13 04:37:22;;;;;;;1999.90;999.90;;;;;;;;;;4974010;28;20035;-66
2023/10/13 04:39:56;;;;;;;1999.90;999.90;;;;;;;;;;4974165;28;20027;-62
2023/10/13 04:45:27;;;;;;;1999.90;999.90;;;;;;;;;;4974427;28;20034;-65
2023/10/13 04:47:57;;;;;;;1999.90;999.90;;;;;;;;;;4974457;28;20033;-72
2023/10/13 04:50:34;;;;;;;1999.90;999.90;;;;;;;;;;4974221;28;20119;-65
2023/10/13 04:53:13;;;;;;;1999.90;999.90;;;;;;;;;;4974898;28;20037;-69
2023/10/13 04:56:07;;;;;;;1999.90;999.90;;;;;;;;;;4974822;28;20030;-72
2023/10/13 05:48:01;;;;;;;1999.90;999.90;;;;;;;;;;4993072;28;20041;-78
2023/10/13 06:28:45;;;;;;;1999.90;999.90;;;;;;;;;;4991850;28;20073;-65
2023/10/13 06:31:21;;;;;;;1999.90;999.90;;;;;;;;;;4974608;28;20034;-67
2023/10/13 06:33:47;;;;;;;1999.90;999.90;;;;;;;;;;4992297;28;20064;-74
2023/10/13 06:36:13;;;;;;;1999.90;999.90;;;;;;;;;;4992001;28;20026;-64
2023/10/13 06:38:41;;;;;;;1999.90;999.90;;;;;;;;;;4973907;28;20038;-65
2023/10/13 06:41:07;;;;;;;1999.90;999.90;;;;;;;;;;4991977;28;20158;-65
2023/10/13 06:43:39;;;;;;;1999.90;999.90;;;;;;;;;;4991755;28;20488;-64
2023/10/13 06:46:07;;;;;;;1999.90;999.90;;;;;;;;;;4991803;28;20026;-67
2023/10/13 06:48:34;;;;;;;1999.90;999.90;;;;;;;;;;4992202;28;20054;-65
2023/10/13 06:51:12;;;;;;;1999.90;999.90;;;;;;;;;;4991599;28;20046;-69
2023/10/13 06:53:38;;;;;;;1999.90;999.90;;;;;;;;;;4992038;28;20045;-71
2023/10/13 06:56:09;;;;;;;1999.90;999.90;;;;;;;;;;4974400;28;20028;-76
2023/10/13 06:58:35;;;;;;;1999.90;999.90;;;;;;;;;;4992246;28;20033;-64
2023/10/13 07:01:01;;;;;;;1999.90;999.90;;;;;;;;;;4991581;28;20049;-63
2023/10/13 07:03:28;;;;;;;1999.90;999.90;;;;;;;;;;4991422;28;20087;-65
2023/10/13 07:05:58;;;;;;;1999.90;999.90;;;;;;;;;;4992491;28;20030;-73
2023/10/13 07:08:25;;;;;;;1999.90;999.90;;;;;;;;;;5011236;28;20664;-75
2023/10/13 07:13:53;;;;;;;1999.90;999.90;;;;;;;;;;4949717;29;20450;-66
2023/10/13 07:16:19;;;;;;;1999.90;999.90;;;;;;;;;;4950180;29;20519;-72
2023/10/13 07:18:52;;;;;;;1999.90;999.90;;;;;;;;;;4950297;29;20085;-67
2023/10/13 07:21:30;;;;;;;1999.90;999.90;;;;;;;;;;4935110;29;20054;-70
2023/10/13 07:24:10;;;;;;;1999.90;999.90;;;;;;;;;;4949791;29;20035;-65
2023/10/13 07:26:45;;;;;;;1999.90;999.90;;;;;;;;;;4950135;29;20039;-66
2023/10/13 07:29:11;;;;;;;1999.90;999.90;;;;;;;;;;4949644;28;20059;-66
2023/10/13 07:31:44;;;;;;;1999.90;999.90;;;;;;;;;;4945855;29;20055;-68
2023/10/13 07:34:22;;;;;;;1999.90;999.90;;;;;;;;;;4948783;29;20042;-68
2023/10/13 07:36:49;;;;;;;1999.90;999.90;;;;;;;;;;4950455;29;20051;-65
2023/10/13 07:39:23;;;;;;;1999.90;999.90;;;;;;;;;;4950485;29;20514;-69
2023/10/13 07:42:03;;;;;;;1999.90;999.90;;;;;;;;;;4950496;29;20051;-69
2023/10/13 07:44:33;;;;;;;1999.90;999.90;;;;;;;;;;4950994;28;20042;-72
2023/10/13 07:46:59;;;;;;;1999.90;999.90;;;;;;;;;;4954048;29;20035;-67
2023/10/13 07:49:36;;;;;;;1999.90;999.90;;;;;;;;;;4954312;28;20027;-68
2023/10/13 07:52:18;;;;;;;1999.90;999.90;;;;;;;;;;4992413;28;20046;-68
2023/10/13 07:54:47;;;;;;;;;;;;;;;;;;4995624;28;20501;-69
2023/10/13 07:57:14;;;;;;;1999.90;999.90;;;;;;;;;;4995114;28;19916;-70
2023/10/13 07:59:51;;;;;;;1999.90;999.90;;;;;;;;;;4995143;28;20031;-70
2023/10/13 08:02:48;;;;;;;1999.90;999.90;;;;;;;;;;4995191;28;20034;-71
2023/10/13 08:05:04;;;;;;;1999.90;999.90;;;;;;;;;;4994909;28;20042;-70
2023/10/13 08:07:31;;;;;;;1999.90;999.90;;;;;;;;;;4995138;28;20034;-69
2023/10/13 08:09:59;;;;;;;1999.90;999.90;;;;;;;;;;4995041;28;20023;-65
2023/10/13 08:12:25;;;;;;;1999.90;999.90;;;;;;;;;;4994846;28;20394;-70
2023/10/13 08:15:09;;;;;;;1999.90;999.90;;;;;;;;;;4994703;28;20120;-70
2023/10/13 08:17:35;;;;;;;1999.90;999.90;;;;;;;;;;4994664;28;20034;-65
2023/10/13 08:20:11;;;;;;;1999.90;999.90;;;;;;;;;;4994502;28;20022;-65
2023/10/13 08:22:38;;;;;;;1999.90;999.90;;;;;;;;;;4994583;28;20042;-65
2023/10/13 08:28:04;;;;;;;1999.90;999.90;;;;;;;;;;4994437;28;20057;-66
2023/10/13 08:30:30;;;;;;;1999.90;999.90;;;;;;;;;;4994219;28;20501;-66
2023/10/13 08:32:58;;;;;;;1999.90;999.90;;;;;;;;;;4994342;28;20022;-64
2023/10/13 08:35:33;;;;;;;1999.90;999.90;;;;;;;;;;4994403;28;20046;-65
2023/10/13 08:38:03;;;;;;;1999.90;999.90;;;;;;;;;;4994629;28;20022;-63
2023/10/13 08:43:14;;;;;;;1999.90;999.90;;;;;;;;;;4994160;28;20084;-67
2023/10/13 08:53:32;;;;;;;1999.90;999.90;;;;;;;;;;4994319;28;20038;-67
2023/10/13 08:59:05;;;;;;;;;;;;;;;;;;4994111;28;20124;-65
2023/10/13 09:01:35;;;;;;;1999.90;999.90;;;;;;;;;;4993486;28;20562;-66
2023/10/13 09:12:20;;;;;;;1999.90;999.90;;;;;;;;;;4993226;28;20397;-68
2023/10/13 09:15:04;;;;;;;1999.90;999.90;;;;;;;;;;4990491;28;20023;-68
2023/10/13 09:25:38;;;;;;;1999.90;999.90;;;;;;;;;;4993452;28;20065;-71
2023/10/13 09:28:14;;;;;;;1999.90;999.90;;;;;;;;;;4992955;28;20057;-70
2023/10/13 09:30:47;;;;;;;1999.90;999.90;;;;;;;;;;4992916;28;20508;-67
2023/10/13 09:33:20;;;;;;;1999.90;999.90;;;;;;;;;;4992813;28;20066;-70
2023/10/13 09:35:49;;;;;;;1999.90;999.90;;;;;;;;;;4993163;28;20092;-65
2023/10/13 09:38:15;;;;;;;1999.90;999.90;;;;;;;;;;4993190;28;20088;-66
2023/10/13 09:40:57;;;;;;;1999.90;999.90;;;;;;;;;;4993025;28;20026;-64
2023/10/13 09:43:23;;;;;;;1999.90;999.90;;;;;;;;;;4999095;28;20549;-67
2023/10/13 09:46:02;;;;;;;1999.90;999.90;;;;;;;;;;5009574;28;20034;-67
2023/10/13 09:48:46;;;;;;;1999.90;999.90;;;;;;;;;;5012334;28;20034;-65
2023/10/13 09:51:19;;;;;;;1999.90;999.90;;;;;;;;;;4996651;28;20109;-64
2023/10/13 09:54:09;;;;;;;1999.90;999.90;;;;;;;;;;4999729;28;20429;-65
2023/10/13 09:56:51;;;;;;;1999.90;999.90;;;;;;;;;;4936027;29;20067;-64
2023/10/13 09:59:20;;;;;;;1999.90;999.90;;;;;;;;;;4933396;29;20123;-65
2023/10/13 10:01:57;;;;;;;1999.90;999.90;;;;;;;;;;4935790;29;20598;-65
2023/10/13 10:04:23;;;;;;;1999.90;999.90;;;;;;;;;;4933942;29;20024;-63
2023/10/13 10:06:56;;;;;;;1999.90;999.90;;;;;;;;;;4935462;29;20495;-63
2023/10/13 10:09:34;;;;;;;1999.90;999.90;;;;;;;;;;4932401;29;20064;-65
2023/10/13 10:12:18;;;;;;;1999.90;999.90;;;;;;;;;;4932215;29;20032;-63
2023/10/13 10:15:01;;;;;;;1999.90;999.90;;;;;;;;;;4931846;29;20175;-71
2023/10/13 10:17:29;;;;;;;1999.90;999.90;;;;;;;;;;4931537;29;20040;-74
2023/10/13 10:19:56;;;;;;;1999.90;999.90;;;;;;;;;;4932005;29;20039;-66
2023/10/13 10:22:44;;;;;;;1999.90;999.90;;;;;;;;;;4931792;29;20036;-70
2023/10/13 10:25:24;;;;;;;1999.90;999.90;;;;;;;;;;4931601;29;20027;-64
2023/10/13 10:27:59;;;;;;;1999.90;999.90;;;;;;;;;;4931071;29;20047;-71
2023/10/13 10:30:29;;;;;;;1999.90;999.90;;;;;;;;;;4931398;29;20427;-66
2023/10/13 10:33:18;;;;;;;1999.90;999.90;;;;;;;;;;4947746;28;20038;-65
2023/10/13 10:35:59;;;;;;;1999.90;999.90;;;;;;;;;;5010733;28;20370;-69
2023/10/13 10:38:32;;;;;;;1999.90;999.90;;;;;;;;;;5011514;28;20432;-64
2023/10/13 10:41:03;;;;;;;1999.90;999.90;;;;;;;;;;5011268;28;20038;-70
2023/10/13 10:43:41;;;;;;;1999.90;999.90;;;;;;;;;;5011136;28;20026;-67
2023/10/13 10:46:10;;;;;;;1999.90;999.90;;;;;;;;;;5011003;28;20382;-69
2023/10/13 10:48:42;;;;;;;1999.90;999.90;;;;;;;;;;4993655;28;20398;-63
2023/10/13 10:51:21;;;;;;;1999.90;999.90;;;;;;;;;;5010939;28;20835;-66
2023/10/13 10:53:49;;;;;;;1999.90;999.90;;;;;;;;;;5011010;28;20034;-66
2023/10/13 10:56:25;;;;;;;1999.90;999.90;;;;;;;;;;5011282;28;20033;-71
2023/10/13 10:58:55;;;;;;;1999.90;999.90;;;;;;;;;;5010312;28;20034;-67
2023/10/13 11:01:33;;;;;;;1999.90;999.90;;;;;;;;;;5010914;28;20034;-65
2023/10/13 11:04:24;;;;;;;1999.90;999.90;;;;;;;;;;5010703;28;20061;-69
2023/10/13 11:06:57;;;;;;;1999.90;999.90;;;;;;;;;;5010718;28;20029;-69
2023/10/13 11:11:53;;;;;;;1999.90;999.90;;;;;;;;;;5010471;28;20033;-68
2023/10/13 11:14:25;;;;;;;1999.90;999.90;;;;;;;;;;5010532;28;20505;-64
2023/10/13 11:16:53;;;;;;;1999.90;999.90;;;;;;;;;;5010803;28;20029;-69
2023/10/13 11:19:25;;;;;;;1999.90;999.90;;;;;;;;;;5009859;28;20021;-63
2023/10/13 11:21:53;;;;;;;1999.90;999.90;;;;;;;;;;5010582;28;20034;-65
2023/10/13 11:24:21;;;;;;;1999.90;999.90;;;;;;;;;;5010258;28;20385;-63
2023/10/13 11:26:51;;;;;;;1999.90;999.90;;;;;;;;;;5006060;28;20030;-65
2023/10/13 11:29:20;;;;;;;1999.90;999.90;;;;;;;;;;4973496;28;20047;-70
2023/10/13 11:31:53;;;;;;;1999.90;999.90;;;;;;;;;;4971712;28;20051;-69
2023/10/13 11:34:19;;;;;;;1999.90;999.90;;;;;;;;;;4971144;28;20031;-62
2023/10/13 11:36:46;;;;;;;1999.90;999.90;;;;;;;;;;4971489;28;20023;-66
2023/10/13 11:39:18;;;;;;;1999.90;999.90;;;;;;;;;;4953726;28;20037;-67
2023/10/13 11:41:53;;;;;;;1999.90;999.90;;;;;;;;;;4971181;28;20041;-64
2023/10/13 11:52:01;;;;;;;1999.90;999.90;;;;;;;;;;4971433;28;20445;-65
2023/10/13 11:54:27;;;;;;;1999.90;999.90;;;;;;;;;;4971624;28;20030;-63
2023/10/13 11:56:58;;;;;;;1999.90;999.90;;;;;;;;;;4971485;28;20029;-64
2023/10/13 11:59:27;;;;;;;1999.90;999.90;;;;;;;;;;4971454;28;20053;-63
2023/10/13 12:04:48;;;;;;;1999.90;999.90;;;;;;;;;;4971058;28;20030;-63
2023/10/13 12:07:21;;;;;;;1999.90;999.90;;;;;;;;;;4971433;28;20025;-64
2023/10/13 12:12:23;;;;;;;1999.90;999.90;;;;;;;;;;4971292;28;20031;-63
2023/10/13 12:14:52;;;;;;;1999.90;999.90;;;;;;;;;;4970975;28;20027;-64
2023/10/13 12:17:24;;;;;;;1999.90;999.90;;;;;;;;;;4970716;28;20121;-67
2023/10/13 12:19:54;;;;;;;1999.90;999.90;;;;;;;;;;4953484;28;20434;-66
2023/10/13 12:22:35;;;;;;;1999.90;999.90;;;;;;;;;;4970810;28;20045;-63
2023/10/13 12:25:05;;;;;;;1999.90;999.90;;;;;;;;;;4994581;28;20030;-67
2023/10/13 12:27:45;;;;;;;1999.90;999.90;;;;;;;;;;5004919;28;20478;-64
2023/10/13 12:30:22;;;;;;;1999.90;999.90;;;;;;;;;;5000266;28;20100;-66
2023/10/13 12:32:58;;;;;;;1999.90;999.90;;;;;;;;;;5003641;28;20030;-64
2023/10/13 12:35:29;;;;;;;1999.90;999.90;;;;;;;;;;5003257;28;20081;-64
2023/10/13 12:38:04;;;;;;;1999.90;999.90;;;;;;;;;;4993541;28;20470;-63
2023/10/13 12:54:05;;;;;;;1999.90;999.90;;;;;;;;;;5000371;28;20082;-64
2023/10/13 12:56:32;;;;;;;1999.90;999.90;;;;;;;;;;4997352;28;20098;-64
2023/10/13 12:58:58;;;;;;;1999.90;999.90;;;;;;;;;;5013489;28;20061;-67
2023/10/13 13:01:32;;;;;;;1999.90;999.90;;;;;;;;;;5013160;28;20045;-68
2023/10/13 13:03:58;;;;;;;1999.90;999.90;;;;;;;;;;5013082;28;20026;-67
2023/10/13 13:06:29;;;;;;;1999.90;999.90;;;;;;;;;;5013813;28;20040;-66
2023/10/13 13:08:56;;;;;;;1999.90;999.90;;;;;;;;;;4980453;28;20077;-68
2023/10/13 13:11:23;;;;;;;1999.90;999.90;;;;;;;;;;4993683;28;20030;-67
2023/10/13 13:13:49;;;;;;;1999.90;999.90;;;;;;;;;;4994033;28;20525;-65
2023/10/13 13:16:18;;;;;;;1999.90;999.90;;;;;;;;;;4994165;28;20038;-65
2023/10/13 13:18:44;;;;;;;1999.90;999.90;;;;;;;;;;4975029;28;20092;-65
2023/10/13 13:21:19;;;;;;;1999.90;999.90;;;;;;;;;;4995636;28;20034;-64
2023/10/13 13:23:48;;;;;;;1999.90;999.90;;;;;;;;;;4993405;28;20018;-67
2023/10/13 13:26:18;;;;;;;1999.90;999.90;;;;;;;;;;4994155;28;20080;-63
2023/10/13 13:28:45;;;;;;;1999.90;999.90;;;;;;;;;;4992645;28;20105;-63
2023/10/13 13:31:15;;;;;;;1999.90;999.90;;;;;;;;;;4991092;28;20046;-63
2023/10/13 13:33:43;;;;;;;1999.90;999.90;;;;;;;;;;5002088;28;20457;-63
2023/10/13 13:36:15;;;;;;;1999.90;999.90;;;;;;;;;;5002025;28;20421;-64
2023/10/13 13:38:42;;;;;;;1999.90;999.90;;;;;;;;;;5002176;28;20090;-63
2023/10/13 13:41:16;;;;;;;1999.90;999.90;;;;;;;;;;5000597;28;20026;-64
2023/10/13 13:43:55;;;;;;;1999.90;999.90;;;;;;;;;;5000675;28;20026;-63
2023/10/13 13:46:24;;;;;;;1999.90;999.90;;;;;;;;;;5000022;28;20057;-62
2023/10/13 13:48:58;;;;;;;1999.90;999.90;;;;;;;;;;4993533;28;20029;-68
2023/10/13 13:51:27;;;;;;;1999.90;999.90;;;;;;;;;;5000471;28;20014;-63
2023/10/13 13:53:54;;;;;;;1999.90;999.90;;;;;;;;;;5001728;28;20030;-62
2023/10/13 13:56:20;;;;;;;1999.90;999.90;;;;;;;;;;5002196;28;20877;-64
2023/10/13 13:58:47;;;;;;;1999.90;999.90;;;;;;;;;;5000039;28;20382;-68
2023/10/13 14:01:21;;;;;;;1999.90;999.90;;;;;;;;;;4993959;28;20434;-67
2023/10/13 14:03:50;;;;;;;1999.90;999.90;;;;;;;;;;4992080;28;20110;-64
2023/10/13 14:06:24;;;;;;;1999.90;999.90;;;;;;;;;;4992467;28;20033;-62
2023/10/13 14:08:56;;;;;;;1999.90;999.90;;;;;;;;;;5000665;28;20025;-65
2023/10/13 14:12:25;;;;;;;1999.90;999.90;;;;;;;;;;5003399;28;20022;-63
2023/10/13 14:14:12;;;;;;;1999.90;999.90;;;;;;;;;;4981606;28;20554;-63
2023/10/13 14:16:46;;;;;;;1999.90;999.90;;;;;;;;;;4994722;28;20424;-64
2023/10/13 14:19:13;;;;;;;1999.90;999.90;;;;;;;;;;4967158;28;20026;-64
2023/10/13 14:21:39;;;;;;;1999.90;999.90;;;;;;;;;;4983016;28;20501;-66
2023/10/13 14:24:13;;;;;;;1999.90;999.90;;;;;;;;;;5000716;28;20367;-62
2023/10/13 14:26:39;;;;;;;1999.90;999.90;;;;;;;;;;4991759;28;20109;-67
2023/10/13 14:29:08;;;;;;;1999.90;999.90;;;;;;;;;;4992395;28;20042;-65
2023/10/13 14:31:36;;;;;;;1999.90;999.90;;;;;;;;;;4996128;28;20033;-72
2023/10/13 14:34:03;;;;;;;1999.90;999.90;;;;;;;;;;4998169;28;20025;-63
2023/10/13 14:36:29;;;;;;;1999.90;999.90;;;;;;;;;;4991905;28;20045;-66
2023/10/13 14:38:55;;;;;;;1999.90;999.90;;;;;;;;;;4991279;28;20091;-67
2023/10/13 14:41:22;;;;;;;1999.90;999.90;;;;;;;;;;4991168;28;20484;-68
2023/10/13 14:43:48;;;;;;;1999.90;999.90;;;;;;;;;;4993615;28;20030;-66
2023/10/13 14:46:17;;;;;;;1999.90;999.90;;;;;;;;;;4991665;28;20029;-65
2023/10/13 14:48:48;;;;;;;1999.90;999.90;;;;;;;;;;4975036;28;20054;-66
2023/10/13 14:51:16;;;;;;;1999.90;999.90;;;;;;;;;;4993039;28;20425;-64
2023/10/13 14:53:46;;;;;;;1999.90;999.90;;;;;;;;;;4997099;28;20103;-67
2023/10/13 14:56:13;;;;;;;1999.90;999.90;;;;;;;;;;4999341;28;20488;-68
2023/10/13 14:58:43;;;;;;;1999.90;999.90;;;;;;;;;;5001659;28;20033;-65
2023/10/13 15:01:19;;;;;;;1999.90;999.90;;;;;;;;;;5001407;28;20038;-69
2023/10/13 15:03:46;;;;;;;1999.90;999.90;;;;;;;;;;4994137;28;20417;-71
2023/10/13 15:06:20;;;;;;;1999.90;999.90;;;;;;;;;;4999628;28;21357;-71
2023/10/13 15:08:47;;;;;;;1999.90;999.90;;;;;;;;;;4990719;28;20018;-73
2023/10/13 15:11:13;;;;;;;1999.90;999.90;;;;;;;;;;5000061;28;20109;-71
2023/10/13 15:13:40;;;;;;;1999.90;999.90;;;;;;;;;;4997544;28;20106;-70
2023/10/13 15:16:16;;;;;;;1999.90;999.90;;;;;;;;;;5003571;28;20481;-70
2023/10/13 15:18:44;;;;;;;1999.90;999.90;;;;;;;;;;4995701;28;20060;-70
2023/10/13 15:21:10;;;;;;;1999.90;999.90;;;;;;;;;;5004397;28;20038;-71
2023/10/13 15:23:42;;;;;;;1999.90;999.90;;;;;;;;;;5010185;28;20049;-70
2023/10/13 15:26:09;;;;;;;;;;;;;;;;;;5007265;28;20041;-71
2023/10/13 15:28:37;;;;;;;1999.90;999.90;;;;;;;;;;4998075;28;20408;-69
2023/10/13 15:31:22;;;;;;;1999.90;999.90;;;;;;;;;;5010692;28;20084;-69
2023/10/13 15:33:52;;;;;;;1999.90;999.90;;;;;;;;;;5001873;28;20252;-67
2023/10/13 15:36:21;;;;;;;1999.90;999.90;;;;;;;;;;4991329;28;20026;-67
2023/10/13 15:38:47;;;;;;;1999.90;999.90;;;;;;;;;;5000463;28;20465;-67
2023/10/13 15:41:13;;;;;;;1999.90;999.90;;;;;;;;;;5004060;28;20502;-71
2023/10/13 15:43:49;;;;;;;1999.90;999.90;;;;;;;;;;4995005;28;20030;-69
2023/10/13 15:46:16;;;;;;;1999.90;999.90;;;;;;;;;;4997665;28;20044;-73
2023/10/13 15:48:45;;;;;;;1999.90;999.90;;;;;;;;;;4999456;28;20045;-72
2023/10/13 15:51:14;;;;;;;1999.90;999.90;;;;;;;;;;4998485;28;20025;-72
2023/10/13 15:53:43;;;;;;;1999.90;999.90;;;;;;;;;;4991468;28;20022;-68
2023/10/13 15:56:12;;;;;;;1999.90;999.90;;;;;;;;;;4994218;28;20086;-71
2023/10/13 15:58:45;;;;;;;1999.90;999.90;;;;;;;;;;4979529;28;20161;-68
2023/10/13 16:01:12;;;;;;;1999.90;999.90;;;;;;;;;;5001518;28;20119;-74
2023/10/13 16:03:43;;;;;;;1999.90;999.90;;;;;;;;;;4992820;28;20057;-69
2023/10/13 16:06:10;;;;;;;1999.90;999.90;;;;;;;;;;4999583;28;20113;-68
2023/10/13 16:08:38;;;;;;;1999.90;999.90;;;;;;;;;;4991499;28;20385;-69
2023/10/13 16:11:17;;;;;;;1999.90;999.90;;;;;;;;;;4996093;28;20767;-69
2023/10/13 16:13:50;;;;;;;1999.90;999.90;;;;;;;;;;4993623;28;20031;-66
2023/10/13 16:16:23;;;;;;;1999.90;999.90;;;;;;;;;;4997378;28;20050;-66
2023/10/13 16:18:50;;;;;;;1999.90;999.90;;;;;;;;;;4997797;28;20045;-70
2023/10/13 16:21:17;;;;;;;1999.90;999.90;;;;;;;;;;5004631;28;20029;-67
2023/10/13 16:23:48;;;;;;;1999.90;999.90;;;;;;;;;;4986031;28;20053;-74
2023/10/13 16:26:14;;;;;;;1999.90;999.90;;;;;;;;;;5001527;28;20050;-73
2023/10/13 16:28:41;;;;;;;1999.90;999.90;;;;;;;;;;4974828;28;20401;-67
2023/10/13 16:31:07;;;;;;;1999.90;999.90;;;;;;;;;;5001631;28;20031;-66
2023/10/13 16:33:36;;;;;;;1999.90;999.90;;;;;;;;;;5004868;28;20030;-71
2023/10/13 16:36:08;;;;;;;1999.90;999.90;;;;;;;;;;5002135;28;20030;-66
2023/10/13 16:38:35;;;;;;;1999.90;999.90;;;;;;;;;;5000485;28;20026;-66
2023/10/13 16:41:05;;;;;;;1999.90;999.90;;;;;;;;;;4993634;28;20038;-64
2023/10/13 16:43:33;;;;;;;1999.90;999.90;;;;;;;;;;4999071;28;20030;-73
2023/10/13 16:45:59;;;;;;;1999.90;999.90;;;;;;;;;;5004399;28;20018;-68
2023/10/13 16:48:26;;;;;;;1999.90;999.90;;;;;;;;;;5001466;28;20482;-73
2023/10/13 16:50:57;;;;;;;1999.90;999.90;;;;;;;;;;5003551;28;20031;-74
2023/10/13 16:53:23;;;;;;;1999.90;999.90;;;;;;;;;;4985425;28;20489;-68
2023/10/13 16:55:49;;;;;;;1999.90;999.90;;;;;;;;;;4995517;28;20030;-72
2023/10/13 16:58:15;;;;;;;1999.90;999.90;;;;;;;;;;5001817;28;20061;-75
2023/10/13 17:00:51;;;;;;;1999.90;999.90;;;;;;;;;;4998086;28;20474;-76
2023/10/13 17:03:17;;;;;;;1999.90;999.90;;;;;;;;;;4998338;28;20108;-72
2023/10/13 17:05:43;;;;;;;1999.90;999.90;;;;;;;;;;4999961;28;20381;-71
2023/10/13 17:08:09;;;;;;;1999.90;999.90;;;;;;;;;;5003877;28;20034;-67
2023/10/13 17:10:36;;;;;;;1999.90;999.90;;;;;;;;;;5010939;28;20083;-69
2023/10/13 17:13:05;;;;;;;1999.90;999.90;;;;;;;;;;5013299;28;20036;-69
2023/10/13 17:15:35;;;;;;;1999.90;999.90;;;;;;;;;;4995969;28;20481;-71
2023/10/13 17:18:05;;;;;;;1999.90;999.90;;;;;;;;;;4990240;28;20021;-68
2023/10/13 17:20:35;;;;;;;1999.90;999.90;;;;;;;;;;4983467;28;20034;-64
2023/10/13 17:23:01;;;;;;;1999.90;999.90;;;;;;;;;;4993636;28;20534;-67
2023/10/13 17:25:27;;;;;;;1999.90;999.90;;;;;;;;;;4994024;28;20202;-70
2023/10/13 17:27:53;;;;;;;1999.90;999.90;;;;;;;;;;4993058;28;20049;-69
2023/10/13 17:30:19;;;;;;;1999.90;999.90;;;;;;;;;;4987775;28;20034;-67
2023/10/13 17:32:46;;;;;;;1999.90;999.90;;;;;;;;;;4992248;28;20477;-69
2023/10/13 17:35:12;;;;;;;1999.90;999.90;;;;;;;;;;4989768;28;20117;-66
2023/10/13 17:37:42;;;;;;;1999.90;999.90;;;;;;;;;;4987545;28;20362;-66
2023/10/13 17:40:15;;;;;;;1999.90;999.90;;;;;;;;;;4992266;28;20375;-69
2023/10/13 17:42:41;;;;;;;1999.90;999.90;;;;;;;;;;4989932;28;20122;-70
2023/10/13 17:45:09;;;;;;;1999.90;999.90;;;;;;;;;;4991966;28;20085;-66
2023/10/13 17:47:36;;;;;;;1999.90;999.90;;;;;;;;;;4994585;28;20404;-73
2023/10/13 17:50:03;;;;;;;1999.90;999.90;;;;;;;;;;4977162;28;20053;-68
2023/10/13 17:52:30;;;;;;;1999.90;999.90;;;;;;;;;;4992078;28;20030;-66
2023/10/13 17:54:56;;;;;;;1999.90;999.90;;;;;;;;;;4975647;28;20112;-68
2023/10/13 17:57:22;;;;;;;1999.90;999.90;;;;;;;;;;4992275;28;20066;-72
2023/10/13 17:59:48;;;;;;;1999.90;999.90;;;;;;;;;;4992951;28;20034;-69
2023/10/13 18:02:14;;;;;;;1999.90;999.90;;;;;;;;;;4974694;28;20054;-69
2023/10/13 18:04:41;;;;;;;1999.90;999.90;;;;;;;;;;4990381;28;20058;-70
2023/10/13 18:07:11;;;;;;;1999.90;999.90;;;;;;;;;;4992752;28;20057;-72
2023/10/13 18:09:37;;;;;;;1999.90;999.90;;;;;;;;;;4992519;28;20218;-71
2023/10/13 18:12:04;;;;;;;1999.90;999.90;;;;;;;;;;4992965;28;20085;-72
2023/10/13 18:14:30;;;;;;;1999.90;999.90;;;;;;;;;;4993619;28;20500;-67
2023/10/13 18:16:56;;;;;;;1999.90;999.90;;;;;;;;;;4994870;28;20030;-68
2023/10/13 18:19:27;;;;;;;1999.90;999.90;;;;;;;;;;4993150;28;20069;-71
2023/10/13 18:21:54;;;;;;;1999.90;999.90;;;;;;;;;;4994450;28;20084;-68
2023/10/13 18:24:22;;;;;;;1999.90;999.90;;;;;;;;;;4993158;28;20482;-66
2023/10/13 18:26:49;;;;;;;1999.90;999.90;;;;;;;;;;4992508;28;20030;-72
2023/10/13 18:29:16;;;;;;;1999.90;999.90;;;;;;;;;;4991821;28;20573;-72
2023/10/13 18:31:42;;;;;;;1999.90;999.90;;;;;;;;;;4992001;28;20030;-66
2023/10/13 18:34:08;;;;;;;1999.90;999.90;;;;;;;;;;4988193;28;20030;-69
2023/10/13 18:36:34;;;;;;;1999.90;999.90;;;;;;;;;;4993797;28;20715;-70
2023/10/13 18:39:00;;;;;;;1999.90;999.90;;;;;;;;;;4991834;28;20465;-70
2023/10/13 18:41:29;;;;;;;1999.90;999.90;;;;;;;;;;4992653;28;20069;-70
2023/10/13 18:43:56;;;;;;;1999.90;999.90;;;;;;;;;;4991568;28;20021;-69
2023/10/13 18:46:25;;;;;;;1999.90;999.90;;;;;;;;;;4969274;28;20039;-69
2023/10/13 18:48:51;;;;;;;1999.90;999.90;;;;;;;;;;4976082;28;20015;-69
2023/10/13 18:51:18;;;;;;;1999.90;999.90;;;;;;;;;;4985276;28;20367;-69
2023/10/13 18:53:46;;;;;;;1999.90;999.90;;;;;;;;;;4972098;28;20022;-71
2023/10/13 18:56:13;;;;;;;1999.90;999.90;;;;;;;;;;4976370;28;20026;-68
2023/10/13 18:58:40;;;;;;;1999.90;999.90;;;;;;;;;;4991122;28;20579;-70
2023/10/13 19:01:17;;;;;;;1999.90;999.90;;;;;;;;;;4990727;28;20124;-70
2023/10/13 19:03:48;;;;;;;1999.90;999.90;;;;;;;;;;4990924;28;20390;-70
2023/10/13 19:06:17;;;;;;;1999.90;999.90;;;;;;;;;;4990789;28;20022;-67
2023/10/13 19:08:43;;;;;;;1999.90;999.90;;;;;;;;;;4990327;28;20202;-64
2023/10/13 19:11:11;;;;;;;1999.90;999.90;;;;;;;;;;4990934;28;20099;-67
2023/10/13 19:13:58;;;;;;;1999.90;999.90;;;;;;;;;;4990327;28;20045;-67
2023/10/13 19:16:25;;;;;;;1999.90;999.90;;;;;;;;;;4989007;28;20041;-67
2023/10/13 19:18:51;;;;;;;1999.90;999.90;;;;;;;;;;4989087;28;20027;-65
2023/10/13 19:21:19;;;;;;;1999.90;999.90;;;;;;;;;;4990652;28;20066;-69
2023/10/13 19:23:52;;;;;;;1999.90;999.90;;;;;;;;;;4990518;28;20461;-67
2023/10/13 19:26:22;;;;;;;1999.90;999.90;;;;;;;;;;4990055;28;20026;-66
2023/10/13 19:28:48;;;;;;;1999.90;999.90;;;;;;;;;;4990111;28;20124;-65
2023/10/13 19:31:17;;;;;;;1999.90;999.90;;;;;;;;;;4990826;28;20058;-64
2023/10/13 19:33:44;;;;;;;1999.90;999.90;;;;;;;;;;4990459;28;20029;-66
2023/10/13 19:36:14;;;;;;;1999.90;999.90;;;;;;;;;;4990402;28;20030;-67
2023/10/13 19:38:40;;;;;;;1999.90;999.90;;;;;;;;;;4990106;28;20031;-66
2023/10/13 19:41:19;;;;;;;1999.90;999.90;;;;;;;;;;4992677;28;20038;-66
2023/10/13 19:43:45;;;;;;;1999.90;999.90;;;;;;;;;;4994191;28;20033;-68
2023/10/13 19:46:12;;;;;;;1999.90;999.90;;;;;;;;;;4994422;28;20031;-65
2023/10/13 19:48:39;;;;;;;1999.90;999.90;;;;;;;;;;4993848;28;20061;-68
2023/10/13 19:51:10;;;;;;;1999.90;999.90;;;;;;;;;;4994317;28;20139;-68
2023/10/13 19:53:37;;;;;;;1999.90;999.90;;;;;;;;;;4994502;28;20029;-66
2023/10/13 19:56:04;;;;;;;1999.90;999.90;;;;;;;;;;4994445;28;20504;-66
2023/10/13 19:58:31;;;;;;;1999.90;999.90;;;;;;;;;;4994195;28;20433;-65
2023/10/13 20:00:59;;;;;;;1999.90;999.90;;;;;;;;;;4993418;28;20482;-67
2023/10/13 20:03:25;;;;;;;1999.90;999.90;;;;;;;;;;4976345;28;20433;-65
2023/10/13 20:05:51;;;;;;;1999.90;999.90;;;;;;;;;;4993715;28;20631;-63
2023/10/13 20:08:17;;;;;;;1999.90;999.90;;;;;;;;;;4993977;28;20030;-68
2023/10/13 20:10:43;;;;;;;1999.90;999.90;;;;;;;;;;4994113;28;20038;-67
2023/10/13 20:13:10;;;;;;;1999.90;999.90;;;;;;;;;;4994210;28;20026;-68
2023/10/13 20:15:37;;;;;;;1999.90;999.90;;;;;;;;;;4975875;28;20034;-65
2023/10/13 20:18:08;;;;;;;1999.90;999.90;;;;;;;;;;4993859;28;20429;-68
2023/10/13 20:20:39;;;;;;;1999.90;999.90;;;;;;;;;;4993763;28;20092;-70
2023/10/13 20:23:12;;;;;;;1999.90;999.90;;;;;;;;;;4994584;28;20022;-66
2023/10/13 20:25:38;;;;;;;1999.90;999.90;;;;;;;;;;4993915;28;20469;-66
2023/10/13 20:28:04;;;;;;;1999.90;999.90;;;;;;;;;;4993084;28;20060;-67
2023/10/13 20:30:33;;;;;;;1999.90;999.90;;;;;;;;;;4993686;28;20034;-65
2023/10/13 20:32:59;;;;;;;1999.90;999.90;;;;;;;;;;4993462;28;20037;-66
2023/10/13 20:35:25;;;;;;;1999.90;999.90;;;;;;;;;;4975198;28;20561;-71
2023/10/13 20:37:54;;;;;;;1999.90;999.90;;;;;;;;;;4993810;28;20038;-67
2023/10/13 20:40:23;;;;;;;1999.90;999.90;;;;;;;;;;4993572;28;20022;-71
2023/10/13 20:42:49;;;;;;;1999.90;999.90;;;;;;;;;;4992864;28;20026;-69
2023/10/13 20:45:22;;;;;;;1999.90;999.90;;;;;;;;;;4993174;28;20029;-65
2023/10/13 20:47:49;;;;;;;1999.90;999.90;;;;;;;;;;4989087;28;20126;-68
2023/10/13 20:50:16;;;;;;;1999.90;999.90;;;;;;;;;;4979754;28;20414;-69
2023/10/13 20:52:42;;;;;;;1999.90;999.90;;;;;;;;;;4999589;28;20026;-68
2023/10/13 20:55:08;;;;;;;1999.90;999.90;;;;;;;;;;4999053;28;20033;-68
2023/10/13 20:57:34;;;;;;;1999.90;999.90;;;;;;;;;;5000976;28;20033;-66
2023/10/13 21:00:03;;;;;;;1999.90;999.90;;;;;;;;;;4993328;28;20034;-68
2023/10/13 21:02:30;;;;;;;1999.90;999.90;;;;;;;;;;5002115;28;20133;-67